This is the latest recevied weather packets stored in our database for station/object SV9TNF-51. If no packets are shown the sender has not sent any weather packets the latest 10 day(s).
| Time | Temp. | Humidity | Pressure | Rain* | Wind** | Luminosity | Snow |
|---|---|---|---|---|---|---|---|
| 1788625067 | 27.78° C | 47% | 1014.2 hPa | 0 mm | 4.02 m/s, 177° | - | - |
| 1788624767 | 28.33° C | 48% | 1014.2 hPa | 0 mm | 5.36 m/s, 210° | - | - |
| 1788624467 | 28.33° C | 48% | 1014.2 hPa | 0 mm | 4.92 m/s, 186° | - | - |
| 1788624167 | 28.33° C | 48% | 1014.2 hPa | 0 mm | 3.58 m/s, 181° | - | - |
| 1788623867 | 29.44° C | 46% | 1014.2 hPa | 0 mm | 0.89 m/s, 187° | - | - |
| 1788623567 | 29.44° C | 47% | 1014.2 hPa | 0 mm | 1.34 m/s, 190° | - | - |
| 1788623267 | 28.89° C | 47% | 1014.2 hPa | 0 mm | 7.6 m/s, 197° | - | - |
| 1788622966 | 29.44° C | 46% | 1014.2 hPa | 0 mm | 4.92 m/s, 200° | - | - |
| 1788622667 | 30° C | 45% | 1014.2 hPa | 0 mm | 3.58 m/s, 127° | - | - |
| 1788622366 | 30° C | 44% | 1014.2 hPa | 0 mm | 5.81 m/s, 329° | - | - |
| 1788622066 | 30.56° C | 43% | 1014.2 hPa | 0 mm | 2.68 m/s, 131° | - | - |
| 1788621766 | 30° C | 45% | 1014.2 hPa | 0 mm | 4.92 m/s, 219° | - | - |
| 1788621466 | 30° C | 44% | 1014.2 hPa | 0 mm | 5.81 m/s, 134° | - | - |
| 1788621166 | 30° C | 44% | 1014.2 hPa | 0 mm | 5.36 m/s, 176° | - | - |
| 1788620866 | 30° C | 43% | 1014.2 hPa | 0 mm | 4.92 m/s, 353° | - | - |
| 1788620566 | 30.56° C | 42% | 1014.2 hPa | 0 mm | 3.58 m/s, 139° | - | - |
| 1788620266 | 30.56° C | 41% | 1014.2 hPa | 0 mm | 8.05 m/s, 134° | - | - |
| 1788619966 | 31.67° C | 41% | 1014.2 hPa | 0 mm | 0.89 m/s, 131° | - | - |
| 1788619665 | 31.11° C | 40% | 1014.2 hPa | 0 mm | 4.02 m/s, 351° | - | - |
| 1788619365 | 31.67° C | 41% | 1014.2 hPa | 0 mm | 0.89 m/s, 130° | - | - |
| 1788619066 | 30.56° C | 40% | 1014.2 hPa | 0 mm | 5.81 m/s, 327° | - | - |
| 1788618765 | 31.67° C | 40% | 1014.2 hPa | 0 mm | 1.34 m/s, 112° | - | - |
| 1788618466 | 30.56° C | 43% | 1014.2 hPa | 0 mm | 4.02 m/s, 90° | - | - |
| 1788618165 | 31.11° C | 42% | 1014.2 hPa | 0 mm | 3.13 m/s, 330° | - | - |
| 1788617865 | 31.11° C | 41% | 1014.2 hPa | 0 mm | 10.28 m/s, 329° | - | - |
* Rain latest hour (hover to see other rain measurements)
** Current wind speed in m/s (hover to see current wind gust speed)